sensor_id;sensor_type;location;lat;lon;timestamp;temperature;humidity
37678;DHT22;23517;50.390;8.616;2024-03-02T00:00:39;3.60;1.00
37678;DHT22;23517;50.390;8.616;2024-03-02T00:03:07;3.60;1.00
37678;DHT22;23517;50.390;8.616;2024-03-02T00:05:35;3.60;1.00
37678;DHT22;23517;50.390;8.616;2024-03-02T00:08:05;3.60;1.00
37678;DHT22;23517;50.390;8.616;2024-03-02T00:10:38;3.60;1.00
37678;DHT22;23517;50.390;8.616;2024-03-02T00:13:08;3.50;1.00
37678;DHT22;23517;50.390;8.616;2024-03-02T00:18:19;3.50;1.00
37678;DHT22;23517;50.390;8.616;2024-03-02T00:20:47;3.50;1.00
37678;DHT22;23517;50.390;8.616;2024-03-02T00:23:16;3.50;1.00
37678;DHT22;23517;50.390;8.616;2024-03-02T00:25:46;3.50;1.00
37678;DHT22;23517;50.390;8.616;2024-03-02T00:30:56;3.40;1.00
37678;DHT22;23517;50.390;8.616;2024-03-02T00:33:27;3.40;1.00
37678;DHT22;23517;50.390;8.616;2024-03-02T00:35:55;3.40;1.00
37678;DHT22;23517;50.390;8.616;2024-03-02T00:38:22;3.40;1.00
37678;DHT22;23517;50.390;8.616;2024-03-02T00:40:49;3.30;1.00
37678;DHT22;23517;50.390;8.616;2024-03-02T00:44:18;3.30;1.00
37678;DHT22;23517;50.390;8.616;2024-03-02T00:46:27;3.30;1.00
37678;DHT22;23517;50.390;8.616;2024-03-02T00:49:00;3.30;1.00
37678;DHT22;23517;50.390;8.616;2024-03-02T00:51:30;3.20;1.00
37678;DHT22;23517;50.390;8.616;2024-03-02T00:54:03;3.20;1.00
37678;DHT22;23517;50.390;8.616;2024-03-02T00:56:32;3.20;1.00
37678;DHT22;23517;50.390;8.616;2024-03-02T00:59:01;3.10;1.00
37678;DHT22;23517;50.390;8.616;2024-03-02T01:01:28;3.10;1.00
37678;DHT22;23517;50.390;8.616;2024-03-02T01:03:54;3.10;1.00
37678;DHT22;23517;50.390;8.616;2024-03-02T01:06:21;3.10;1.00
37678;DHT22;23517;50.390;8.616;2024-03-02T01:08:52;3.10;1.00
37678;DHT22;23517;50.390;8.616;2024-03-02T01:11:20;3.00;99.90
37678;DHT22;23517;50.390;8.616;2024-03-02T01:13:50;3.00;99.90
37678;DHT22;23517;50.390;8.616;2024-03-02T01:16:17;3.00;99.90
37678;DHT22;23517;50.390;8.616;2024-03-02T01:18:44;2.90;1.00
37678;DHT22;23517;50.390;8.616;2024-03-02T01:21:11;2.90;1.00
37678;DHT22;23517;50.390;8.616;2024-03-02T01:23:38;2.90;1.00
37678;DHT22;23517;50.390;8.616;2024-03-02T01:26:05;2.80;1.00
37678;DHT22;23517;50.390;8.616;2024-03-02T01:28:32;2.80;1.00
37678;DHT22;23517;50.390;8.616;2024-03-02T01:30:58;2.80;1.00
37678;DHT22;23517;50.390;8.616;2024-03-02T01:33:25;2.80;1.00
37678;DHT22;23517;50.390;8.616;2024-03-02T01:35:52;2.80;1.00
37678;DHT22;23517;50.390;8.616;2024-03-02T01:38:19;3.00;1.00
37678;DHT22;23517;50.390;8.616;2024-03-02T01:40:46;2.80;96.60
37678;DHT22;23517;50.390;8.616;2024-03-02T01:43:13;2.80;1.00
37678;DHT22;23517;50.390;8.616;2024-03-02T01:45:40;2.80;1.00
37678;DHT22;23517;50.390;8.616;2024-03-02T01:48:07;2.80;1.00
37678;DHT22;23517;50.390;8.616;2024-03-02T01:50:34;2.80;1.00
37678;DHT22;23517;50.390;8.616;2024-03-02T01:53:02;2.80;97.50
37678;DHT22;23517;50.390;8.616;2024-03-02T01:55:29;2.80;99.90
37678;DHT22;23517;50.390;8.616;2024-03-02T01:57:57;2.80;99.90
37678;DHT22;23517;50.390;8.616;2024-03-02T02:00:25;2.80;17.10
37678;DHT22;23517;50.390;8.616;2024-03-02T02:02:53;2.80;1.00
37678;DHT22;23517;50.390;8.616;2024-03-02T02:05:20;2.80;19.70
37678;DHT22;23517;50.390;8.616;2024-03-02T02:07:47;2.70;99.90
37678;DHT22;23517;50.390;8.616;2024-03-02T02:10:14;2.70;99.90
37678;DHT22;23517;50.390;8.616;2024-03-02T02:12:41;2.60;99.90
37678;DHT22;23517;50.390;8.616;2024-03-02T02:15:24;2.70;1.00
37678;DHT22;23517;50.390;8.616;2024-03-02T02:17:56;2.60;1.00
37678;DHT22;23517;50.390;8.616;2024-03-02T02:20:24;2.60;1.00
37678;DHT22;23517;50.390;8.616;2024-03-02T02:22:58;2.60;1.00
37678;DHT22;23517;50.390;8.616;2024-03-02T02:25:26;2.60;1.00
37678;DHT22;23517;50.390;8.616;2024-03-02T02:27:53;2.50;40.20
37678;DHT22;23517;50.390;8.616;2024-03-02T02:30:25;2.50;99.90
37678;DHT22;23517;50.390;8.616;2024-03-02T02:32:55;2.50;99.90
37678;DHT22;23517;50.390;8.616;2024-03-02T02:35:22;2.50;99.90
37678;DHT22;23517;50.390;8.616;2024-03-02T02:37:52;2.50;99.90
37678;DHT22;23517;50.390;8.616;2024-03-02T02:40:20;2.50;99.90
37678;DHT22;23517;50.390;8.616;2024-03-02T02:42:47;2.40;99.90
37678;DHT22;23517;50.390;8.616;2024-03-02T02:45:14;2.40;99.90
37678;DHT22;23517;50.390;8.616;2024-03-02T02:47:42;2.40;99.90
37678;DHT22;23517;50.390;8.616;2024-03-02T02:50:10;2.30;99.90
37678;DHT22;23517;50.390;8.616;2024-03-02T02:52:40;2.30;99.90
37678;DHT22;23517;50.390;8.616;2024-03-02T02:55:09;2.30;99.90
37678;DHT22;23517;50.390;8.616;2024-03-02T02:57:39;2.20;99.90
37678;DHT22;23517;50.390;8.616;2024-03-02T03:00:13;2.10;99.90
37678;DHT22;23517;50.390;8.616;2024-03-02T03:02:44;2.10;99.90
37678;DHT22;23517;50.390;8.616;2024-03-02T03:05:14;2.10;99.90
37678;DHT22;23517;50.390;8.616;2024-03-02T03:07:41;2.10;99.90
37678;DHT22;23517;50.390;8.616;2024-03-02T03:10:08;2.10;99.90
37678;DHT22;23517;50.390;8.616;2024-03-02T03:12:36;2.10;99.90
37678;DHT22;23517;50.390;8.616;2024-03-02T03:15:04;2.10;99.90
37678;DHT22;23517;50.390;8.616;2024-03-02T03:17:33;2.10;99.90
37678;DHT22;23517;50.390;8.616;2024-03-02T03:19:59;2.10;99.90
37678;DHT22;23517;50.390;8.616;2024-03-02T03:22:27;2.10;99.90
37678;DHT22;23517;50.390;8.616;2024-03-02T03:24:54;2.10;99.90
37678;DHT22;23517;50.390;8.616;2024-03-02T03:27:20;2.10;99.90
37678;DHT22;23517;50.390;8.616;2024-03-02T03:29:48;2.10;99.90
37678;DHT22;23517;50.390;8.616;2024-03-02T03:32:14;2.10;99.90
37678;DHT22;23517;50.390;8.616;2024-03-02T03:34:41;2.00;99.90
37678;DHT22;23517;50.390;8.616;2024-03-02T03:37:08;2.00;99.90
37678;DHT22;23517;50.390;8.616;2024-03-02T03:39:36;2.00;99.90
37678;DHT22;23517;50.390;8.616;2024-03-02T03:42:03;2.00;99.90
37678;DHT22;23517;50.390;8.616;2024-03-02T03:44:30;2.00;99.90
37678;DHT22;23517;50.390;8.616;2024-03-02T03:46:57;2.00;99.90
37678;DHT22;23517;50.390;8.616;2024-03-02T03:49:24;2.00;99.90
37678;DHT22;23517;50.390;8.616;2024-03-02T03:51:50;2.00;99.90
37678;DHT22;23517;50.390;8.616;2024-03-02T03:54:17;2.00;99.90
37678;DHT22;23517;50.390;8.616;2024-03-02T03:56:44;2.00;99.90
37678;DHT22;23517;50.390;8.616;2024-03-02T03:59:11;1.90;99.90
37678;DHT22;23517;50.390;8.616;2024-03-02T04:01:37;1.90;99.90
37678;DHT22;23517;50.390;8.616;2024-03-02T04:04:04;1.90;99.90
37678;DHT22;23517;50.390;8.616;2024-03-02T04:06:31;1.90;99.90
37678;DHT22;23517;50.390;8.616;2024-03-02T04:08:58;1.90;99.90
37678;DHT22;23517;50.390;8.616;2024-03-02T04:11:25;1.90;99.90
37678;DHT22;23517;50.390;8.616;2024-03-02T04:13:52;1.90;99.90
37678;DHT22;23517;50.390;8.616;2024-03-02T04:16:22;2.00;99.90
37678;DHT22;23517;50.390;8.616;2024-03-02T04:18:49;2.00;99.90
37678;DHT22;23517;50.390;8.616;2024-03-02T04:21:16;1.90;99.90
37678;DHT22;23517;50.390;8.616;2024-03-02T04:23:42;2.00;99.90
37678;DHT22;23517;50.390;8.616;2024-03-02T04:26:09;2.00;99.90
37678;DHT22;23517;50.390;8.616;2024-03-02T04:28:36;2.00;99.90
37678;DHT22;23517;50.390;8.616;2024-03-02T04:31:02;2.10;99.90
37678;DHT22;23517;50.390;8.616;2024-03-02T04:33:29;2.10;99.90
37678;DHT22;23517;50.390;8.616;2024-03-02T04:35:56;2.20;99.90
37678;DHT22;23517;50.390;8.616;2024-03-02T04:38:24;2.20;99.90
37678;DHT22;23517;50.390;8.616;2024-03-02T04:40:50;2.30;99.90
37678;DHT22;23517;50.390;8.616;2024-03-02T04:43:17;2.40;99.90
37678;DHT22;23517;50.390;8.616;2024-03-02T04:45:44;2.40;99.90
37678;DHT22;23517;50.390;8.616;2024-03-02T04:48:11;2.40;99.90
37678;DHT22;23517;50.390;8.616;2024-03-02T04:50:38;2.50;99.90
37678;DHT22;23517;50.390;8.616;2024-03-02T04:53:05;2.50;99.90
37678;DHT22;23517;50.390;8.616;2024-03-02T04:55:31;2.60;99.90
37678;DHT22;23517;50.390;8.616;2024-03-02T04:58:01;2.60;99.90
37678;DHT22;23517;50.390;8.616;2024-03-02T05:00:28;2.60;99.90
37678;DHT22;23517;50.390;8.616;2024-03-02T05:02:55;2.60;99.90
37678;DHT22;23517;50.390;8.616;2024-03-02T05:05:21;2.60;99.90
37678;DHT22;23517;50.390;8.616;2024-03-02T05:07:51;2.60;99.90
37678;DHT22;23517;50.390;8.616;2024-03-02T05:10:18;2.60;99.90
37678;DHT22;23517;50.390;8.616;2024-03-02T05:12:44;2.50;72.30
37678;DHT22;23517;50.390;8.616;2024-03-02T05:15:14;2.50;52.70
37678;DHT22;23517;50.390;8.616;2024-03-02T05:17:42;2.40;3.50
37678;DHT22;23517;50.390;8.616;2024-03-02T05:20:12;2.30;40.00
37678;DHT22;23517;50.390;8.616;2024-03-02T05:22:39;2.30;99.90
37678;DHT22;23517;50.390;8.616;2024-03-02T05:25:06;2.30;99.90
37678;DHT22;23517;50.390;8.616;2024-03-02T05:27:34;2.30;99.90
37678;DHT22;23517;50.390;8.616;2024-03-02T05:30:01;2.30;99.90
37678;DHT22;23517;50.390;8.616;2024-03-02T05:32:27;2.20;99.90
37678;DHT22;23517;50.390;8.616;2024-03-02T05:34:54;2.20;99.90
37678;DHT22;23517;50.390;8.616;2024-03-02T05:37:21;2.20;99.90
37678;DHT22;23517;50.390;8.616;2024-03-02T05:39:48;2.20;99.90
37678;DHT22;23517;50.390;8.616;2024-03-02T05:42:15;2.20;99.90
37678;DHT22;23517;50.390;8.616;2024-03-02T05:44:43;2.10;99.90
37678;DHT22;23517;50.390;8.616;2024-03-02T05:47:10;2.10;99.90
37678;DHT22;23517;50.390;8.616;2024-03-02T05:49:44;2.10;99.90
37678;DHT22;23517;50.390;8.616;2024-03-02T05:52:11;2.10;99.90
37678;DHT22;23517;50.390;8.616;2024-03-02T05:54:38;2.10;99.90
37678;DHT22;23517;50.390;8.616;2024-03-02T05:57:05;2.10;99.90
37678;DHT22;23517;50.390;8.616;2024-03-02T06:00:00;2.10;99.90
37678;DHT22;23517;50.390;8.616;2024-03-02T06:02:27;2.20;99.90
37678;DHT22;23517;50.390;8.616;2024-03-02T06:04:54;2.20;99.90
37678;DHT22;23517;50.390;8.616;2024-03-02T06:07:22;2.20;39.90
37678;DHT22;23517;50.390;8.616;2024-03-02T06:09:50;2.20;3.10
37678;DHT22;23517;50.390;8.616;2024-03-02T06:12:18;2.30;10.70
37678;DHT22;23517;50.390;8.616;2024-03-02T06:14:45;2.30;1.00
37678;DHT22;23517;50.390;8.616;2024-03-02T06:17:12;2.40;1.00
37678;DHT22;23517;50.390;8.616;2024-03-02T06:19:39;2.40;1.00
37678;DHT22;23517;50.390;8.616;2024-03-02T06:22:06;2.50;1.00
37678;DHT22;23517;50.390;8.616;2024-03-02T06:24:32;2.50;1.00
37678;DHT22;23517;50.390;8.616;2024-03-02T06:26:59;2.50;1.00
37678;DHT22;23517;50.390;8.616;2024-03-02T06:29:26;2.50;1.00
37678;DHT22;23517;50.390;8.616;2024-03-02T06:31:52;2.60;1.00
37678;DHT22;23517;50.390;8.616;2024-03-02T06:34:20;2.70;88.30
37678;DHT22;23517;50.390;8.616;2024-03-02T06:36:47;2.80;99.90
37678;DHT22;23517;50.390;8.616;2024-03-02T06:39:14;2.80;99.90
37678;DHT22;23517;50.390;8.616;2024-03-02T06:41:41;2.90;99.90
37678;DHT22;23517;50.390;8.616;2024-03-02T06:44:09;3.00;99.90
37678;DHT22;23517;50.390;8.616;2024-03-02T06:49:12;3.10;99.90
37678;DHT22;23517;50.390;8.616;2024-03-02T06:51:39;3.10;99.90
37678;DHT22;23517;50.390;8.616;2024-03-02T06:54:06;3.20;99.90
37678;DHT22;23517;50.390;8.616;2024-03-02T06:56:32;3.20;40.30
37678;DHT22;23517;50.390;8.616;2024-03-02T06:58:59;3.10;1.00
37678;DHT22;23517;50.390;8.616;2024-03-02T07:01:26;3.10;1.00
37678;DHT22;23517;50.390;8.616;2024-03-02T07:03:54;3.10;23.20
37678;DHT22;23517;50.390;8.616;2024-03-02T07:06:21;3.20;17.70
37678;DHT22;23517;50.390;8.616;2024-03-02T07:08:48;3.30;14.90
37678;DHT22;23517;50.390;8.616;2024-03-02T07:11:14;3.30;1.00
37678;DHT22;23517;50.390;8.616;2024-03-02T07:13:41;3.40;1.00
37678;DHT22;23517;50.390;8.616;2024-03-02T07:16:07;3.50;1.00
37678;DHT22;23517;50.390;8.616;2024-03-02T07:18:37;3.40;1.00
37678;DHT22;23517;50.390;8.616;2024-03-02T07:21:08;3.40;1.00
37678;DHT22;23517;50.390;8.616;2024-03-02T07:23:34;3.40;1.00
37678;DHT22;23517;50.390;8.616;2024-03-02T07:26:01;3.40;1.00
37678;DHT22;23517;50.390;8.616;2024-03-02T07:28:31;3.50;1.00
37678;DHT22;23517;50.390;8.616;2024-03-02T07:31:02;3.50;1.00
37678;DHT22;23517;50.390;8.616;2024-03-02T07:33:31;3.50;1.00
37678;DHT22;23517;50.390;8.616;2024-03-02T07:35:59;3.60;99.90
37678;DHT22;23517;50.390;8.616;2024-03-02T07:38:31;3.70;99.90
37678;DHT22;23517;50.390;8.616;2024-03-02T07:40:58;3.80;99.90
37678;DHT22;23517;50.390;8.616;2024-03-02T07:43:26;3.90;97.60
37678;DHT22;23517;50.390;8.616;2024-03-02T07:45:54;3.90;1.00
37678;DHT22;23517;50.390;8.616;2024-03-02T07:48:21;4.10;1.00
37678;DHT22;23517;50.390;8.616;2024-03-02T07:50:47;4.20;99.90
37678;DHT22;23517;50.390;8.616;2024-03-02T07:53:14;4.40;99.90
37678;DHT22;23517;50.390;8.616;2024-03-02T07:55:41;4.50;1.00
37678;DHT22;23517;50.390;8.616;2024-03-02T07:58:08;4.80;1.00
37678;DHT22;23517;50.390;8.616;2024-03-02T08:00:35;5.00;1.00
37678;DHT22;23517;50.390;8.616;2024-03-02T08:03:02;5.30;99.90
37678;DHT22;23517;50.390;8.616;2024-03-02T08:05:29;5.70;3.60
37678;DHT22;23517;50.390;8.616;2024-03-02T08:07:56;6.20;99.90
37678;DHT22;23517;50.390;8.616;2024-03-02T08:10:23;6.80;1.00
37678;DHT22;23517;50.390;8.616;2024-03-02T08:12:49;8.10;1.00
37678;DHT22;23517;50.390;8.616;2024-03-02T08:15:16;11.50;99.90
37678;DHT22;23517;50.390;8.616;2024-03-02T08:17:44;15.20;99.90
37678;DHT22;23517;50.390;8.616;2024-03-02T08:20:16;16.00;1.00
37678;DHT22;23517;50.390;8.616;2024-03-02T08:22:43;15.90;1.00
37678;DHT22;23517;50.390;8.616;2024-03-02T08:25:10;15.70;1.00
37678;DHT22;23517;50.390;8.616;2024-03-02T08:27:37;15.40;1.00
37678;DHT22;23517;50.390;8.616;2024-03-02T08:30:05;15.30;1.00
37678;DHT22;23517;50.390;8.616;2024-03-02T08:32:34;14.40;1.00
37678;DHT22;23517;50.390;8.616;2024-03-02T08:35:01;13.30;1.00
37678;DHT22;23517;50.390;8.616;2024-03-02T08:37:27;12.80;1.00
37678;DHT22;23517;50.390;8.616;2024-03-02T08:39:54;12.30;1.00
37678;DHT22;23517;50.390;8.616;2024-03-02T08:42:22;11.90;1.00
37678;DHT22;23517;50.390;8.616;2024-03-02T08:44:49;11.60;1.00
37678;DHT22;23517;50.390;8.616;2024-03-02T08:47:16;11.40;8.20
37678;DHT22;23517;50.390;8.616;2024-03-02T08:49:43;11.30;25.60
37678;DHT22;23517;50.390;8.616;2024-03-02T08:52:10;11.00;50.20
37678;DHT22;23517;50.390;8.616;2024-03-02T08:54:36;10.80;90.20
37678;DHT22;23517;50.390;8.616;2024-03-02T08:57:05;10.60;99.90
37678;DHT22;23517;50.390;8.616;2024-03-02T08:59:32;10.50;99.90
37678;DHT22;23517;50.390;8.616;2024-03-02T09:01:59;10.20;99.90
37678;DHT22;23517;50.390;8.616;2024-03-02T09:04:26;10.10;99.90
37678;DHT22;23517;50.390;8.616;2024-03-02T09:06:55;10.00;99.90
37678;DHT22;23517;50.390;8.616;2024-03-02T09:09:22;10.00;99.90
37678;DHT22;23517;50.390;8.616;2024-03-02T09:11:49;10.00;99.90
37678;DHT22;23517;50.390;8.616;2024-03-02T09:14:15;10.10;99.90
37678;DHT22;23517;50.390;8.616;2024-03-02T09:16:42;10.10;99.90
37678;DHT22;23517;50.390;8.616;2024-03-02T09:19:09;10.20;99.90
37678;DHT22;23517;50.390;8.616;2024-03-02T09:21:36;10.30;99.90
37678;DHT22;23517;50.390;8.616;2024-03-02T09:24:05;10.50;99.90
37678;DHT22;23517;50.390;8.616;2024-03-02T09:26:33;10.60;99.90
37678;DHT22;23517;50.390;8.616;2024-03-02T09:28:59;10.80;99.90
37678;DHT22;23517;50.390;8.616;2024-03-02T09:31:26;11.20;99.90
37678;DHT22;23517;50.390;8.616;2024-03-02T09:33:53;11.70;34.90
37678;DHT22;23517;50.390;8.616;2024-03-02T09:36:21;11.90;22.00
37678;DHT22;23517;50.390;8.616;2024-03-02T09:38:49;12.60;47.10
37678;DHT22;23517;50.390;8.616;2024-03-02T09:41:16;13.50;1.00
37678;DHT22;23517;50.390;8.616;2024-03-02T09:43:43;13.90;1.00
37678;DHT22;23517;50.390;8.616;2024-03-02T09:46:10;15.30;1.00
37678;DHT22;23517;50.390;8.616;2024-03-02T09:48:37;16.20;1.00
37678;DHT22;23517;50.390;8.616;2024-03-02T09:51:04;16.30;1.00
37678;DHT22;23517;50.390;8.616;2024-03-02T09:53:33;18.30;1.00
37678;DHT22;23517;50.390;8.616;2024-03-02T09:56:00;20.90;1.00
37678;DHT22;23517;50.390;8.616;2024-03-02T09:58:28;19.20;1.00
37678;DHT22;23517;50.390;8.616;2024-03-02T10:00:55;17.00;1.00
37678;DHT22;23517;50.390;8.616;2024-03-02T10:03:23;15.50;1.00
37678;DHT22;23517;50.390;8.616;2024-03-02T10:05:53;14.30;1.00
37678;DHT22;23517;50.390;8.616;2024-03-02T10:08:20;13.30;1.00
37678;DHT22;23517;50.390;8.616;2024-03-02T10:10:46;12.70;1.00
37678;DHT22;23517;50.390;8.616;2024-03-02T10:13:14;12.20;1.00
37678;DHT22;23517;50.390;8.616;2024-03-02T10:15:42;12.10;1.00
37678;DHT22;23517;50.390;8.616;2024-03-02T10:18:10;12.10;1.00
37678;DHT22;23517;50.390;8.616;2024-03-02T10:20:39;12.10;1.00
37678;DHT22;23517;50.390;8.616;2024-03-02T10:23:15;12.20;1.00
37678;DHT22;23517;50.390;8.616;2024-03-02T10:25:45;12.40;1.00
37678;DHT22;23517;50.390;8.616;2024-03-02T10:28:23;12.50;1.00
37678;DHT22;23517;50.390;8.616;2024-03-02T10:30:51;12.70;1.00
37678;DHT22;23517;50.390;8.616;2024-03-02T10:33:19;12.70;1.00
37678;DHT22;23517;50.390;8.616;2024-03-02T10:35:50;12.80;1.00
37678;DHT22;23517;50.390;8.616;2024-03-02T10:38:17;12.90;1.00
37678;DHT22;23517;50.390;8.616;2024-03-02T10:40:47;12.90;1.00
37678;DHT22;23517;50.390;8.616;2024-03-02T10:43:15;12.90;1.00
37678;DHT22;23517;50.390;8.616;2024-03-02T10:45:44;13.00;1.00
37678;DHT22;23517;50.390;8.616;2024-03-02T10:48:12;13.30;1.00
37678;DHT22;23517;50.390;8.616;2024-03-02T10:50:39;13.70;1.00
37678;DHT22;23517;50.390;8.616;2024-03-02T10:53:06;14.00;1.00
37678;DHT22;23517;50.390;8.616;2024-03-02T10:55:32;14.10;1.00
37678;DHT22;23517;50.390;8.616;2024-03-02T10:58:00;14.30;1.00
37678;DHT22;23517;50.390;8.616;2024-03-02T11:00:33;14.10;1.00
37678;DHT22;23517;50.390;8.616;2024-03-02T11:03:06;14.00;1.00
37678;DHT22;23517;50.390;8.616;2024-03-02T11:05:44;13.90;1.00
37678;DHT22;23517;50.390;8.616;2024-03-02T11:08:18;13.90;1.00
37678;DHT22;23517;50.390;8.616;2024-03-02T11:10:58;13.50;1.00
37678;DHT22;23517;50.390;8.616;2024-03-02T11:13:31;13.50;1.00
37678;DHT22;23517;50.390;8.616;2024-03-02T11:16:06;13.50;1.00
37678;DHT22;23517;50.390;8.616;2024-03-02T11:18:37;13.60;1.00
37678;DHT22;23517;50.390;8.616;2024-03-02T11:21:05;13.70;1.00
37678;DHT22;23517;50.390;8.616;2024-03-02T11:23:33;13.80;1.00
37678;DHT22;23517;50.390;8.616;2024-03-02T11:26:19;13.70;1.00
37678;DHT22;23517;50.390;8.616;2024-03-02T11:28:49;13.70;1.00
37678;DHT22;23517;50.390;8.616;2024-03-02T11:31:16;13.70;1.00
37678;DHT22;23517;50.390;8.616;2024-03-02T11:33:43;13.80;1.00
37678;DHT22;23517;50.390;8.616;2024-03-02T11:36:10;13.80;1.00
37678;DHT22;23517;50.390;8.616;2024-03-02T11:38:38;13.90;1.00
37678;DHT22;23517;50.390;8.616;2024-03-02T11:41:07;14.00;1.00
37678;DHT22;23517;50.390;8.616;2024-03-02T11:43:38;14.10;1.00
37678;DHT22;23517;50.390;8.616;2024-03-02T11:46:08;14.10;1.00
37678;DHT22;23517;50.390;8.616;2024-03-02T11:48:36;14.00;1.00
37678;DHT22;23517;50.390;8.616;2024-03-02T11:51:05;14.00;1.00
37678;DHT22;23517;50.390;8.616;2024-03-02T11:53:33;14.10;1.00
37678;DHT22;23517;50.390;8.616;2024-03-02T11:56:02;14.10;1.00
37678;DHT22;23517;50.390;8.616;2024-03-02T11:58:30;14.20;1.00
37678;DHT22;23517;50.390;8.616;2024-03-02T12:00:56;14.10;1.00
37678;DHT22;23517;50.390;8.616;2024-03-02T12:03:25;13.90;1.00
37678;DHT22;23517;50.390;8.616;2024-03-02T12:05:53;13.90;1.00
37678;DHT22;23517;50.390;8.616;2024-03-02T12:08:21;13.80;1.00
37678;DHT22;23517;50.390;8.616;2024-03-02T12:11:01;13.70;1.00
37678;DHT22;23517;50.390;8.616;2024-03-02T12:13:30;13.60;1.00
37678;DHT22;23517;50.390;8.616;2024-03-02T12:15:57;13.60;1.00
37678;DHT22;23517;50.390;8.616;2024-03-02T12:18:25;13.60;1.00
37678;DHT22;23517;50.390;8.616;2024-03-02T12:20:53;13.70;1.00
37678;DHT22;23517;50.390;8.616;2024-03-02T12:23:23;13.60;1.00
37678;DHT22;23517;50.390;8.616;2024-03-02T12:25:50;13.60;1.00
37678;DHT22;23517;50.390;8.616;2024-03-02T12:28:17;13.60;1.00
37678;DHT22;23517;50.390;8.616;2024-03-02T12:30:44;13.50;1.00
37678;DHT22;23517;50.390;8.616;2024-03-02T12:33:11;13.30;1.00
37678;DHT22;23517;50.390;8.616;2024-03-02T12:35:38;13.10;1.00
37678;DHT22;23517;50.390;8.616;2024-03-02T12:38:06;12.80;1.00
37678;DHT22;23517;50.390;8.616;2024-03-02T12:40:33;12.70;1.00
37678;DHT22;23517;50.390;8.616;2024-03-02T12:43:00;12.70;1.00
37678;DHT22;23517;50.390;8.616;2024-03-02T12:45:27;12.60;1.00
37678;DHT22;23517;50.390;8.616;2024-03-02T12:47:54;12.50;1.00
37678;DHT22;23517;50.390;8.616;2024-03-02T12:50:21;12.60;1.00
37678;DHT22;23517;50.390;8.616;2024-03-02T12:52:52;12.50;1.00
37678;DHT22;23517;50.390;8.616;2024-03-02T12:55:21;12.50;1.00
37678;DHT22;23517;50.390;8.616;2024-03-02T12:57:51;12.40;1.00
37678;DHT22;23517;50.390;8.616;2024-03-02T13:00:20;12.40;1.00
37678;DHT22;23517;50.390;8.616;2024-03-02T13:02:48;12.50;1.00
37678;DHT22;23517;50.390;8.616;2024-03-02T13:05:17;12.50;1.00
37678;DHT22;23517;50.390;8.616;2024-03-02T13:07:47;12.40;1.00
37678;DHT22;23517;50.390;8.616;2024-03-02T13:10:15;12.30;1.00
37678;DHT22;23517;50.390;8.616;2024-03-02T13:12:42;12.40;1.00
37678;DHT22;23517;50.390;8.616;2024-03-02T13:15:09;12.20;1.00
37678;DHT22;23517;50.390;8.616;2024-03-02T13:17:44;12.20;1.00
37678;DHT22;23517;50.390;8.616;2024-03-02T13:20:12;12.10;1.00
37678;DHT22;23517;50.390;8.616;2024-03-02T13:22:40;12.20;1.00
37678;DHT22;23517;50.390;8.616;2024-03-02T13:25:07;12.20;1.00
37678;DHT22;23517;50.390;8.616;2024-03-02T13:27:37;12.20;1.00
37678;DHT22;23517;50.390;8.616;2024-03-02T13:30:04;12.50;1.00
37678;DHT22;23517;50.390;8.616;2024-03-02T13:32:35;12.20;1.00
37678;DHT22;23517;50.390;8.616;2024-03-02T13:35:02;12.10;1.00
37678;DHT22;23517;50.390;8.616;2024-03-02T13:37:29;12.10;1.00
37678;DHT22;23517;50.390;8.616;2024-03-02T13:39:56;12.10;1.00
37678;DHT22;23517;50.390;8.616;2024-03-02T13:42:23;12.20;1.00
37678;DHT22;23517;50.390;8.616;2024-03-02T13:44:50;12.20;1.00
37678;DHT22;23517;50.390;8.616;2024-03-02T13:47:18;12.20;1.00
37678;DHT22;23517;50.390;8.616;2024-03-02T13:49:44;12.10;1.00
37678;DHT22;23517;50.390;8.616;2024-03-02T13:52:16;12.10;1.00
37678;DHT22;23517;50.390;8.616;2024-03-02T13:54:48;12.10;1.00
37678;DHT22;23517;50.390;8.616;2024-03-02T13:57:15;12.20;1.00
37678;DHT22;23517;50.390;8.616;2024-03-02T13:59:43;12.30;1.00
37678;DHT22;23517;50.390;8.616;2024-03-02T14:02:11;12.30;1.00
37678;DHT22;23517;50.390;8.616;2024-03-02T14:04:38;12.30;1.00
37678;DHT22;23517;50.390;8.616;2024-03-02T14:07:06;12.40;1.00
37678;DHT22;23517;50.390;8.616;2024-03-02T14:09:38;12.50;1.00
37678;DHT22;23517;50.390;8.616;2024-03-02T14:12:05;12.50;1.00
37678;DHT22;23517;50.390;8.616;2024-03-02T14:14:33;12.40;1.00
37678;DHT22;23517;50.390;8.616;2024-03-02T14:17:00;12.40;1.00
37678;DHT22;23517;50.390;8.616;2024-03-02T14:19:30;12.40;1.00
37678;DHT22;23517;50.390;8.616;2024-03-02T14:21:57;12.50;1.00
37678;DHT22;23517;50.390;8.616;2024-03-02T14:24:24;12.40;1.00
37678;DHT22;23517;50.390;8.616;2024-03-02T14:26:52;12.50;1.00
37678;DHT22;23517;50.390;8.616;2024-03-02T14:29:28;12.50;1.00
37678;DHT22;23517;50.390;8.616;2024-03-02T14:31:55;12.60;1.00
37678;DHT22;23517;50.390;8.616;2024-03-02T14:34:22;12.60;1.00
37678;DHT22;23517;50.390;8.616;2024-03-02T14:36:49;12.60;1.00
37678;DHT22;23517;50.390;8.616;2024-03-02T14:39:16;12.60;1.00
37678;DHT22;23517;50.390;8.616;2024-03-02T14:41:43;12.50;1.00
37678;DHT22;23517;50.390;8.616;2024-03-02T14:44:09;12.50;1.00
37678;DHT22;23517;50.390;8.616;2024-03-02T14:46:36;12.50;1.00
37678;DHT22;23517;50.390;8.616;2024-03-02T14:49:03;12.50;1.00
37678;DHT22;23517;50.390;8.616;2024-03-02T14:51:30;12.50;1.00
37678;DHT22;23517;50.390;8.616;2024-03-02T14:53:57;12.50;1.00
37678;DHT22;23517;50.390;8.616;2024-03-02T14:56:24;12.50;1.00
37678;DHT22;23517;50.390;8.616;2024-03-02T14:58:51;12.50;1.00
37678;DHT22;23517;50.390;8.616;2024-03-02T15:01:17;12.50;1.00
37678;DHT22;23517;50.390;8.616;2024-03-02T15:03:45;12.50;1.00
37678;DHT22;23517;50.390;8.616;2024-03-02T15:06:12;12.50;1.00
37678;DHT22;23517;50.390;8.616;2024-03-02T15:08:38;12.40;1.00
37678;DHT22;23517;50.390;8.616;2024-03-02T15:11:08;12.40;1.00
37678;DHT22;23517;50.390;8.616;2024-03-02T15:13:35;12.40;1.00
37678;DHT22;23517;50.390;8.616;2024-03-02T15:16:02;12.40;1.00
37678;DHT22;23517;50.390;8.616;2024-03-02T15:18:29;12.40;1.00
37678;DHT22;23517;50.390;8.616;2024-03-02T15:20:57;12.30;1.00
37678;DHT22;23517;50.390;8.616;2024-03-02T15:23:23;12.20;1.00
37678;DHT22;23517;50.390;8.616;2024-03-02T15:25:50;12.10;1.00
37678;DHT22;23517;50.390;8.616;2024-03-02T15:28:17;12.10;1.00
37678;DHT22;23517;50.390;8.616;2024-03-02T15:30:45;12.00;1.00
37678;DHT22;23517;50.390;8.616;2024-03-02T15:33:12;11.90;1.00
37678;DHT22;23517;50.390;8.616;2024-03-02T15:35:39;11.80;1.00
37678;DHT22;23517;50.390;8.616;2024-03-02T15:38:05;11.60;1.00
37678;DHT22;23517;50.390;8.616;2024-03-02T15:40:47;11.50;1.00
37678;DHT22;23517;50.390;8.616;2024-03-02T15:43:13;11.40;1.00
37678;DHT22;23517;50.390;8.616;2024-03-02T15:45:40;11.30;1.00
37678;DHT22;23517;50.390;8.616;2024-03-02T15:48:07;11.20;1.00
37678;DHT22;23517;50.390;8.616;2024-03-02T15:50:34;11.00;1.00
37678;DHT22;23517;50.390;8.616;2024-03-02T15:53:02;11.00;15.10
37678;DHT22;23517;50.390;8.616;2024-03-02T15:55:32;10.90;69.20
37678;DHT22;23517;50.390;8.616;2024-03-02T15:58:01;10.90;99.90
37678;DHT22;23517;50.390;8.616;2024-03-02T16:00:32;10.90;99.90